Affton, MO

10:56 PM CDT on September 19, 2014 (GMT -0500)
South County | Change Station
CLOSE
Current Station
Personal Weather Station
Location: Affton, MO
Elevation: 480 ft
Nearby Weather Stations

Elev 480 ft 38.55 °N, 90.32 °W | Updated 5 seconds ago

Clear
Clear
63.1 °F
Feels Like 63.1 °F
N
0.0
Wind Variable Wind from SSE
Gusts 0.0 mph

Today
High -- | Low -- °F
--% Chance of Precip.
Yesterday
High -- | Low -- °F
Precip. -- in
6:46 AM 7:03 PM
Waning Crescent, 15% visible
Pressure 30.01 in
Visibility 10.0 miles
Clouds Clear
Dew Point 60 °F
Humidity 89%
Rainfall 0.00 in
Snow Depth Not available.
UV 0 out of 12
Pollen 7.00 out of 12
Ozone Good
PM2.5 Moderate
Flu Activity Not available.
METAR KCPS 200253Z AUTO 16004KT 10SM CLR 18/15 A3002 RMK AO2 SLP163 T01830150 53005 TSNO

More Conditions Fewer Conditions

Pressure 30.01 in
Visibility 10.0 miles
Clouds Clear
Dew Point 60 °F
Humidity 89%
Rainfall 0.00 in
Snow Depth Not available.
UV 0 out of 12
Pollen 7.00 out of 12
Ozone Good
PM2.5 Moderate
Flu Activity Not available.
METAR KCPS 200253Z AUTO 16004KT 10SM CLR 18/15 A3002 RMK AO2 SLP163 T01830150 53005 TSNO

More Conditions Fewer Conditions

10-Day Weather Forecast

Almanac

Astronomy

Sep. 19, 2014 Rise Set
Actual Time 6:46 AM CDT 7:03 PM CDT
Civil Twilight 6:19 AM CDT 7:29 PM CDT
Nautical Twilight 5:48 AM CDT 8:00 PM CDT
Astronomical Twilight 5:17 AM CDT 8:32 PM CDT
Moon 2:34 AM CDT (9/19) 4:29 PM CDT (9/19)
Length of Visible Light 13h 09m
Length of Day
12h 16m
Tomorrow will be 2m 28s shorter.
Waning Crescent, 15% of the Moon is Illuminated
Today
Waning Crescent
Sep 24
New
Oct 1
First Quarter
Oct 8
Full
Oct 15
Last Quarter

Today's Extremes

State Highs State Lows

Community

WunderPhotos

Upload Photos

1,754,777 photos uploaded!

WunderBlogs® & News

Nearby

Air Quality

  Air Quality AQ Index Pollutant
Yesterday Good
PM2.5
Yesterday Good
OZONE
Current Moderate
PM2.5
Current Good
OZONE
Friday Good
PM2.5
Saturday Good
PM2.5

Snow Depth

Station Depth Elevation
No new snow has been reported.

Earthquake Activity

City Distance Mag. Time & Date
No recent earthquake activity has been reported nearby.
Minimum magnitude displayed is 2.5.

Coastal Water Temperatures

Place Temperature
No Stations Reporting

Nearby Weather Stations